Time,TemperatureF,DewpointF,PressureIn,WindDirection,WindDirectionDegrees,WindSpeedMPH,WindSpeedGustMPH,Humidity,HourlyPrecipIn,Conditions,Clouds,dailyrainin,SolarRadiationWatts/m^2,SoftwareType,DateUTC
2013-03-21 00:11:00,21.5,18.0,29.79,SW,226,0.0,0.0,87,0.00,,,0.00,0,weatherlink.com 1.10,2013-03-21 04:11:00,
2013-03-21 00:26:00,20.7,17.0,29.79,SW,227,0.0,0.0,87,0.00,,,0.00,0,weatherlink.com 1.10,2013-03-21 04:26:00,
2013-03-21 00:41:00,20.2,17.0,29.79,SW,226,0.0,0.0,88,0.00,,,0.00,0,weatherlink.com 1.10,2013-03-21 04:41:00,
2013-03-21 00:56:00,19.9,17.0,29.78,SW,226,3.0,4.0,88,0.00,,,0.00,0,weatherlink.com 1.10,2013-03-21 04:56:00,
2013-03-21 01:12:00,19.5,17.0,29.78,SW,226,2.0,3.0,88,0.00,,,0.00,0,weatherlink.com 1.10,2013-03-21 05:12:00,
2013-03-21 01:26:00,18.9,16.0,29.78,SW,227,3.0,5.0,87,0.00,,,0.00,0,weatherlink.com 1.10,2013-03-21 05:26:00,
2013-03-21 01:41:00,18.3,15.0,29.78,SW,227,4.0,5.0,88,0.00,,,0.00,0,weatherlink.com 1.10,2013-03-21 05:41:00,
2013-03-21 01:56:00,17.8,15.0,29.79,SW,227,3.0,4.0,88,0.00,,,0.00,0,weatherlink.com 1.10,2013-03-21 05:56:00,
2013-03-21 02:26:00,16.7,14.0,29.79,SW,227,0.0,0.0,89,0.00,,,0.00,0,weatherlink.com 1.10,2013-03-21 06:26:00,
2013-03-21 02:41:00,16.7,14.0,29.78,SW,227,1.0,4.0,90,0.00,,,0.00,0,weatherlink.com 1.10,2013-03-21 06:41:00,
2013-03-21 03:12:00,16.4,14.0,29.78,WSW,242,3.0,6.0,90,0.00,,,0.00,0,weatherlink.com 1.10,2013-03-21 07:12:00,
2013-03-21 03:26:00,16.3,14.0,29.78,WSW,243,0.0,0.0,90,0.00,,,0.00,0,weatherlink.com 1.10,2013-03-21 07:26:00,
2013-03-21 03:41:00,16.0,14.0,29.78,WSW,242,0.0,0.0,90,0.00,,,0.00,0,weatherlink.com 1.10,2013-03-21 07:41:00,
2013-03-21 03:56:00,15.7,13.0,29.77,WSW,242,0.0,0.0,90,0.00,,,0.00,0,weatherlink.com 1.10,2013-03-21 07:56:00,
2013-03-21 04:11:00,15.4,13.0,29.77,WSW,242,0.0,0.0,90,0.00,,,0.00,0,weatherlink.com 1.10,2013-03-21 08:11:00,
2013-03-21 04:27:00,14.9,13.0,29.77,WSW,242,0.0,0.0,90,0.00,,,0.00,0,weatherlink.com 1.10,2013-03-21 08:27:00,
2013-03-21 04:42:00,14.4,12.0,29.77,WSW,242,0.0,0.0,90,0.00,,,0.00,0,weatherlink.com 1.10,2013-03-21 08:42:00,
2013-03-21 04:57:00,13.9,12.0,29.76,WSW,243,0.0,0.0,90,0.00,,,0.00,0,weatherlink.com 1.10,2013-03-21 08:57:00,
2013-03-21 05:12:00,13.6,11.0,29.76,WSW,242,3.0,4.0,90,0.00,,,0.00,0,weatherlink.com 1.10,2013-03-21 09:12:00,
2013-03-21 05:27:00,13.6,11.0,29.76,WSW,244,3.0,5.0,90,0.00,,,0.00,0,weatherlink.com 1.10,2013-03-21 09:27:00,
2013-03-21 05:42:00,13.5,11.0,29.76,SW,227,0.0,5.0,90,0.00,,,0.00,0,weatherlink.com 1.10,2013-03-21 09:42:00,
2013-03-21 05:57:00,12.9,11.0,29.75,SW,227,0.0,0.0,90,0.00,,,0.00,0,weatherlink.com 1.10,2013-03-21 09:57:00,
2013-03-21 06:12:00,12.7,10.0,29.75,SW,227,2.0,3.0,90,0.00,,,0.00,0,weatherlink.com 1.10,2013-03-21 10:12:00,
2013-03-21 06:27:00,12.5,10.0,29.76,North,10,1.0,3.0,90,0.00,,,0.00,0,weatherlink.com 1.10,2013-03-21 10:27:00,
2013-03-21 06:42:00,12.6,11.0,29.77,North,11,0.0,1.0,91,0.00,,,0.00,0,weatherlink.com 1.10,2013-03-21 10:42:00,
2013-03-21 06:57:00,12.4,10.0,29.76,North,11,0.0,0.0,90,0.00,,,0.00,7,weatherlink.com 1.10,2013-03-21 10:57:00,
2013-03-21 07:12:00,12.0,10.0,29.77,North,11,0.0,0.0,90,0.00,,,0.00,16,weatherlink.com 1.10,2013-03-21 11:12:00,
2013-03-21 07:27:00,11.5,9.0,29.77,North,11,0.0,0.0,90,0.00,,,0.00,25,weatherlink.com 1.10,2013-03-21 11:27:00,
2013-03-21 07:42:00,11.6,9.0,29.77,North,10,0.0,0.0,90,0.00,,,0.00,39,weatherlink.com 1.10,2013-03-21 11:42:00,
2013-03-21 07:57:00,12.7,10.0,29.77,North,10,0.0,0.0,90,0.00,,,0.00,72,weatherlink.com 1.10,2013-03-21 11:57:00,
2013-03-21 08:12:00,14.2,12.0,29.77,North,10,0.0,0.0,91,0.00,,,0.00,158,weatherlink.com 1.10,2013-03-21 12:12:00,
2013-03-21 08:29:00,15.5,13.0,29.77,North,11,0.0,0.0,91,0.00,,,0.00,169,weatherlink.com 1.10,2013-03-21 12:29:00,
2013-03-21 08:42:00,15.9,14.0,29.77,North,11,0.0,0.0,91,0.00,,,0.00,151,weatherlink.com 1.10,2013-03-21 12:42:00,
2013-03-21 08:57:00,16.5,14.0,29.78,North,11,0.0,0.0,91,0.00,,,0.00,148,weatherlink.com 1.10,2013-03-21 12:57:00,
2013-03-21 09:12:00,18.5,16.0,29.77,North,11,0.0,0.0,91,0.00,,,0.00,364,weatherlink.com 1.10,2013-03-21 13:12:00,
2013-03-21 09:27:00,20.1,18.0,29.76,North,11,0.0,0.0,90,0.00,,,0.00,339,weatherlink.com 1.10,2013-03-21 13:27:00,
2013-03-21 09:42:00,21.6,19.0,29.75,North,11,0.0,2.0,88,0.00,,,0.00,387,weatherlink.com 1.10,2013-03-21 13:42:00,
2013-03-21 09:57:00,24.7,20.0,29.75,North,11,0.0,0.0,83,0.00,,,0.00,529,weatherlink.com 1.10,2013-03-21 13:57:00,
2013-03-21 10:12:00,26.5,19.0,29.74,West,276,4.0,4.0,73,0.00,,,0.00,403,weatherlink.com 1.10,2013-03-21 14:12:00,
2013-03-21 10:27:00,28.4,19.0,29.74,West,275,0.0,3.0,67,0.00,,,0.00,367,weatherlink.com 1.10,2013-03-21 14:27:00,
2013-03-21 10:42:00,29.3,18.0,29.73,NW,315,0.0,2.0,62,0.00,,,0.00,422,weatherlink.com 1.10,2013-03-21 14:42:00,
2013-03-21 10:57:00,31.1,18.0,29.73,NE,41,4.0,5.0,58,0.00,,,0.00,742,weatherlink.com 1.10,2013-03-21 14:57:00,
2013-03-21 11:12:00,31.3,18.0,29.72,NE,52,3.0,5.0,57,0.00,,,0.00,689,weatherlink.com 1.10,2013-03-21 15:12:00,
2013-03-21 11:28:00,32.5,18.0,29.72,NE,53,4.0,6.0,55,0.00,,,0.00,751,weatherlink.com 1.10,2013-03-21 15:28:00,
2013-03-21 11:43:00,32.8,18.0,29.71,NE,44,5.0,8.0,54,0.00,,,0.00,731,weatherlink.com 1.10,2013-03-21 15:43:00,
2013-03-21 11:58:00,33.7,18.0,29.70,NE,55,2.0,7.0,52,0.00,,,0.00,701,weatherlink.com 1.10,2013-03-21 15:58:00,
2013-03-21 12:13:00,34.3,17.0,29.70,NE,36,3.0,5.0,49,0.00,,,0.00,568,weatherlink.com 1.10,2013-03-21 16:13:00,
2013-03-21 12:28:00,34.9,18.0,29.69,NNE,29,2.0,4.0,50,0.00,,,0.00,775,weatherlink.com 1.10,2013-03-21 16:28:00,
2013-03-21 12:43:00,35.5,15.0,29.68,ENE,63,1.0,10.0,43,0.00,,,0.00,738,weatherlink.com 1.10,2013-03-21 16:43:00,
2013-03-21 12:58:00,35.4,14.0,29.68,South,184,0.0,7.0,41,0.00,,,0.00,798,weatherlink.com 1.10,2013-03-21 16:58:00,
2013-03-21 13:13:00,36.4,15.0,29.67,NE,38,6.0,9.0,42,0.00,,,0.00,860,weatherlink.com 1.10,2013-03-21 17:13:00,
2013-03-21 13:28:00,36.5,14.0,29.66,ENE,61,1.0,9.0,40,0.00,,,0.00,809,weatherlink.com 1.10,2013-03-21 17:28:00,
2013-03-21 13:43:00,35.8,16.0,29.65,NE,34,2.0,8.0,44,0.00,,,0.00,457,weatherlink.com 1.10,2013-03-21 17:43:00,
2013-03-21 13:58:00,37.0,14.0,29.64,North,360,0.0,4.0,39,0.00,,,0.00,650,weatherlink.com 1.10,2013-03-21 17:58:00,
2013-03-21 14:13:00,37.2,16.0,29.64,NE,39,8.0,8.0,42,0.00,,,0.00,824,weatherlink.com 1.10,2013-03-21 18:13:00,
2013-03-21 14:28:00,37.3,15.0,29.63,NE,53,6.0,9.0,40,0.00,,,0.00,773,weatherlink.com 1.10,2013-03-21 18:28:00,
2013-03-21 14:43:00,37.4,17.0,29.62,NE,47,5.0,9.0,43,0.00,,,0.00,770,weatherlink.com 1.10,2013-03-21 18:43:00,
2013-03-21 14:58:00,37.7,15.0,29.62,ENE,63,3.0,9.0,39,0.00,,,0.00,717,weatherlink.com 1.10,2013-03-21 18:58:00,
2013-03-21 15:13:00,37.1,13.0,29.61,ENE,76,1.0,4.0,38,0.00,,,0.00,274,weatherlink.com 1.10,2013-03-21 19:13:00,
2013-03-21 15:28:00,37.4,13.0,29.60,NW,305,0.0,5.0,37,0.00,,,0.00,265,weatherlink.com 1.10,2013-03-21 19:28:00,
2013-03-21 15:45:00,37.4,13.0,29.60,NNE,32,0.0,4.0,37,0.00,,,0.00,353,weatherlink.com 1.10,2013-03-21 19:45:00,
2013-03-21 15:58:00,38.0,14.0,29.60,NNE,30,0.0,3.0,37,0.00,,,0.00,462,weatherlink.com 1.10,2013-03-21 19:58:00,
2013-03-21 16:13:00,38.4,13.0,29.60,NNE,28,1.0,6.0,36,0.00,,,0.00,501,weatherlink.com 1.10,2013-03-21 20:13:00,
2013-03-21 16:28:00,38.0,14.0,29.59,NE,34,1.0,7.0,38,0.00,,,0.00,353,weatherlink.com 1.10,2013-03-21 20:28:00,
2013-03-21 16:43:00,37.8,14.0,29.59,NNE,30,5.0,7.0,38,0.00,,,0.00,155,weatherlink.com 1.10,2013-03-21 20:43:00,
2013-03-21 16:58:00,37.4,14.0,29.59,North,360,4.0,8.0,38,0.00,,,0.00,135,weatherlink.com 1.10,2013-03-21 20:58:00,
2013-03-21 17:13:00,37.4,13.0,29.59,North,350,2.0,8.0,37,0.00,,,0.00,221,weatherlink.com 1.10,2013-03-21 21:13:00,
2013-03-21 17:28:00,36.5,14.0,29.59,NNW,345,4.0,7.0,40,0.00,,,0.00,97,weatherlink.com 1.10,2013-03-21 21:28:00,
2013-03-21 17:43:00,36.1,14.0,29.59,NNW,328,3.0,6.0,41,0.00,,,0.00,76,weatherlink.com 1.10,2013-03-21 21:43:00,
2013-03-21 17:58:00,35.6,14.0,29.60,NNW,348,3.0,5.0,41,0.00,,,0.00,51,weatherlink.com 1.10,2013-03-21 21:58:00,
2013-03-21 18:13:00,35.2,14.0,29.60,NNW,346,0.0,5.0,42,0.00,,,0.00,42,weatherlink.com 1.10,2013-03-21 22:13:00,
2013-03-21 18:28:00,34.6,14.0,29.60,NNW,342,3.0,8.0,43,0.00,,,0.00,30,weatherlink.com 1.10,2013-03-21 22:28:00,
2013-03-21 18:43:00,34.3,14.0,29.61,North,5,0.0,9.0,44,0.00,,,0.00,21,weatherlink.com 1.10,2013-03-21 22:43:00,
2013-03-21 18:58:00,33.6,15.0,29.61,North,355,0.0,8.0,46,0.00,,,0.00,11,weatherlink.com 1.10,2013-03-21 22:58:00,
2013-03-21 19:13:00,33.0,14.0,29.61,NNW,341,2.0,7.0,46,0.00,,,0.00,0,weatherlink.com 1.10,2013-03-21 23:13:00,
2013-03-21 19:28:00,32.8,14.0,29.62,NNW,329,0.0,8.0,46,0.00,,,0.00,0,weatherlink.com 1.10,2013-03-21 23:28:00,
2013-03-21 19:43:00,31.9,14.0,29.62,North,11,4.0,6.0,47,0.00,,,0.00,0,weatherlink.com 1.10,2013-03-21 23:43:00,
2013-03-21 19:58:00,31.0,14.0,29.62,NNE,13,0.0,1.0,50,0.00,,,0.00,0,weatherlink.com 1.10,2013-03-21 23:58:00,
2013-03-21 20:13:00,29.2,15.0,29.63,NNE,13,0.0,0.0,56,0.00,,,0.00,0,weatherlink.com 1.10,2013-03-22 00:13:00,
2013-03-21 20:28:00,28.4,16.0,29.64,NNE,13,0.0,0.0,60,0.00,,,0.00,0,weatherlink.com 1.10,2013-03-22 00:28:00,
2013-03-21 20:43:00,27.7,18.0,29.64,NNE,13,0.0,0.0,68,0.00,,,0.00,0,weatherlink.com 1.10,2013-03-22 00:43:00,
2013-03-21 20:58:00,27.0,18.0,29.64,NNE,13,0.0,1.0,70,0.00,,,0.00,0,weatherlink.com 1.10,2013-03-22 00:58:00,
2013-03-21 21:13:00,26.8,18.0,29.64,North,355,0.0,5.0,70,0.00,,,0.00,0,weatherlink.com 1.10,2013-03-22 01:13:00,
2013-03-21 21:28:00,27.0,17.0,29.64,NW,321,5.0,5.0,67,0.00,,,0.00,0,weatherlink.com 1.10,2013-03-22 01:28:00,
2013-03-21 21:44:00,26.2,19.0,29.64,West,260,0.0,0.0,73,0.00,,,0.00,0,weatherlink.com 1.10,2013-03-22 01:44:00,
2013-03-21 21:59:00,26.6,18.0,29.64,SSE,150,0.0,0.0,69,0.00,,,0.00,0,weatherlink.com 1.10,2013-03-22 01:59:00,
2013-03-21 22:13:00,25.8,17.0,29.63,SSE,150,0.0,0.0,70,0.00,,,0.00,0,weatherlink.com 1.10,2013-03-22 02:13:00,
2013-03-21 22:28:00,26.2,18.0,29.63,SSE,148,0.0,3.0,70,0.00,,,0.00,0,weatherlink.com 1.10,2013-03-22 02:28:00,
2013-03-21 22:43:00,26.2,17.0,29.64,SSE,148,0.0,0.0,69,0.00,,,0.00,0,weatherlink.com 1.10,2013-03-22 02:43:00,
2013-03-21 23:00:00,26.1,18.0,29.64,SE,125,0.0,3.0,70,0.00,,,0.00,0,weatherlink.com 1.10,2013-03-22 03:00:00,
2013-03-21 23:13:00,26.1,18.0,29.63,North,355,0.0,2.0,71,0.00,,,0.00,0,weatherlink.com 1.10,2013-03-22 03:13:00,
2013-03-21 23:29:00,26.3,18.0,29.64,NNE,15,1.0,3.0,71,0.00,,,0.00,0,weatherlink.com 1.10,2013-03-22 03:29:00,
2013-03-21 23:44:00,27.0,18.0,29.64,NE,36,0.0,6.0,70,0.00,,,0.00,0,weatherlink.com 1.10,2013-03-22 03:44:00,
2013-03-21 23:59:00,26.4,18.0,29.64,NE,36,0.0,0.0,71,0.00,,,0.00,0,weatherlink.com 1.10,2013-03-22 03:59:00,